sensor_id;sensor_type;location;lat;lon;timestamp;P1;durP1;ratioP1;P2;durP2;ratioP2
23732;SDS011;12047;53.450;-2.286;2023-01-05T00:04:15;12.60;;;2.00;;
23732;SDS011;12047;53.450;-2.286;2023-01-05T00:09:16;14.63;;;2.45;;
23732;SDS011;12047;53.450;-2.286;2023-01-05T00:14:19;16.92;;;2.28;;
23732;SDS011;12047;53.450;-2.286;2023-01-05T00:19:42;18.30;;;3.17;;
23732;SDS011;12047;53.450;-2.286;2023-01-05T00:25:17;17.00;;;3.50;;
23732;SDS011;12047;53.450;-2.286;2023-01-05T00:30:22;15.43;;;2.63;;
23732;SDS011;12047;53.450;-2.286;2023-01-05T00:35:25;14.85;;;2.90;;
23732;SDS011;12047;53.450;-2.286;2023-01-05T00:40:31;16.20;;;2.67;;
23732;SDS011;12047;53.450;-2.286;2023-01-05T00:45:32;16.13;;;2.58;;
23732;SDS011;12047;53.450;-2.286;2023-01-05T00:50:41;13.03;;;2.80;;
23732;SDS011;12047;53.450;-2.286;2023-01-05T00:55:54;20.00;;;2.90;;
23732;SDS011;12047;53.450;-2.286;2023-01-05T01:00:58;17.48;;;3.38;;
23732;SDS011;12047;53.450;-2.286;2023-01-05T01:06:04;18.45;;;2.40;;
23732;SDS011;12047;53.450;-2.286;2023-01-05T01:11:06;18.08;;;2.85;;
23732;SDS011;12047;53.450;-2.286;2023-01-05T01:16:10;18.30;;;2.55;;
23732;SDS011;12047;53.450;-2.286;2023-01-05T01:21:12;14.52;;;2.63;;
23732;SDS011;12047;53.450;-2.286;2023-01-05T01:26:20;21.50;;;2.75;;
23732;SDS011;12047;53.450;-2.286;2023-01-05T01:31:22;15.77;;;2.97;;
23732;SDS011;12047;53.450;-2.286;2023-01-05T01:36:46;22.38;;;3.50;;
23732;SDS011;12047;53.450;-2.286;2023-01-05T01:48:01;23.05;;;3.10;;
23732;SDS011;12047;53.450;-2.286;2023-01-05T01:53:02;18.13;;;2.80;;
23732;SDS011;12047;53.450;-2.286;2023-01-05T01:58:12;19.60;;;3.65;;
23732;SDS011;12047;53.450;-2.286;2023-01-05T02:03:16;16.55;;;3.45;;
23732;SDS011;12047;53.450;-2.286;2023-01-05T02:08:16;19.38;;;2.95;;
23732;SDS011;12047;53.450;-2.286;2023-01-05T02:13:35;14.63;;;2.85;;
23732;SDS011;12047;53.450;-2.286;2023-01-05T02:18:43;18.75;;;3.03;;
23732;SDS011;12047;53.450;-2.286;2023-01-05T02:34:29;19.50;;;3.63;;
23732;SDS011;12047;53.450;-2.286;2023-01-05T02:39:58;16.95;;;3.10;;
23732;SDS011;12047;53.450;-2.286;2023-01-05T02:45:05;24.52;;;3.30;;
23732;SDS011;12047;53.450;-2.286;2023-01-05T02:50:11;17.50;;;3.13;;
23732;SDS011;12047;53.450;-2.286;2023-01-05T02:55:18;17.35;;;2.47;;
23732;SDS011;12047;53.450;-2.286;2023-01-05T03:00:25;14.93;;;2.25;;
23732;SDS011;12047;53.450;-2.286;2023-01-05T03:05:34;16.13;;;2.90;;
23732;SDS011;12047;53.450;-2.286;2023-01-05T03:10:41;19.30;;;2.90;;
23732;SDS011;12047;53.450;-2.286;2023-01-05T03:16:22;18.85;;;3.33;;
23732;SDS011;12047;53.450;-2.286;2023-01-05T03:21:26;17.35;;;2.40;;
23732;SDS011;12047;53.450;-2.286;2023-01-05T03:26:28;20.27;;;2.65;;
23732;SDS011;12047;53.450;-2.286;2023-01-05T03:31:51;25.95;;;3.83;;
23732;SDS011;12047;53.450;-2.286;2023-01-05T03:37:26;23.38;;;2.63;;
23732;SDS011;12047;53.450;-2.286;2023-01-05T03:42:32;19.40;;;2.80;;
23732;SDS011;12047;53.450;-2.286;2023-01-05T03:47:33;19.90;;;2.47;;
23732;SDS011;12047;53.450;-2.286;2023-01-05T03:52:33;20.08;;;3.90;;
23732;SDS011;12047;53.450;-2.286;2023-01-05T03:57:34;19.40;;;3.10;;
23732;SDS011;12047;53.450;-2.286;2023-01-05T04:02:35;17.83;;;3.10;;
23732;SDS011;12047;53.450;-2.286;2023-01-05T04:07:35;16.60;;;2.33;;
23732;SDS011;12047;53.450;-2.286;2023-01-05T04:12:36;13.35;;;2.60;;
23732;SDS011;12047;53.450;-2.286;2023-01-05T04:17:37;14.48;;;2.38;;
23732;SDS011;12047;53.450;-2.286;2023-01-05T04:22:38;13.95;;;2.25;;
23732;SDS011;12047;53.450;-2.286;2023-01-05T04:27:38;13.27;;;2.53;;
23732;SDS011;12047;53.450;-2.286;2023-01-05T04:32:39;11.90;;;2.20;;
23732;SDS011;12047;53.450;-2.286;2023-01-05T04:37:40;8.07;;;1.83;;
23732;SDS011;12047;53.450;-2.286;2023-01-05T04:42:40;14.13;;;2.33;;
23732;SDS011;12047;53.450;-2.286;2023-01-05T04:47:41;8.48;;;1.88;;
23732;SDS011;12047;53.450;-2.286;2023-01-05T04:52:42;11.85;;;2.33;;
23732;SDS011;12047;53.450;-2.286;2023-01-05T04:57:42;10.40;;;2.22;;
23732;SDS011;12047;53.450;-2.286;2023-01-05T05:02:43;14.60;;;2.50;;
23732;SDS011;12047;53.450;-2.286;2023-01-05T05:07:44;12.85;;;2.05;;
23732;SDS011;12047;53.450;-2.286;2023-01-05T05:12:44;15.75;;;2.30;;
23732;SDS011;12047;53.450;-2.286;2023-01-05T05:17:45;15.23;;;2.60;;
23732;SDS011;12047;53.450;-2.286;2023-01-05T05:22:46;13.13;;;2.60;;
23732;SDS011;12047;53.450;-2.286;2023-01-05T05:27:46;16.90;;;2.85;;
23732;SDS011;12047;53.450;-2.286;2023-01-05T05:32:47;16.27;;;3.50;;
23732;SDS011;12047;53.450;-2.286;2023-01-05T05:37:48;14.35;;;2.80;;
23732;SDS011;12047;53.450;-2.286;2023-01-05T05:42:49;15.82;;;2.65;;
23732;SDS011;12047;53.450;-2.286;2023-01-05T05:47:49;17.40;;;2.97;;
23732;SDS011;12047;53.450;-2.286;2023-01-05T05:52:50;16.60;;;2.58;;
23732;SDS011;12047;53.450;-2.286;2023-01-05T05:57:50;17.38;;;2.78;;
23732;SDS011;12047;53.450;-2.286;2023-01-05T06:02:51;14.25;;;2.58;;
23732;SDS011;12047;53.450;-2.286;2023-01-05T06:07:52;17.77;;;2.90;;
23732;SDS011;12047;53.450;-2.286;2023-01-05T06:12:53;13.73;;;2.88;;
23732;SDS011;12047;53.450;-2.286;2023-01-05T06:17:54;18.85;;;2.78;;
23732;SDS011;12047;53.450;-2.286;2023-01-05T06:22:54;15.75;;;3.17;;
23732;SDS011;12047;53.450;-2.286;2023-01-05T06:27:55;14.73;;;2.80;;
23732;SDS011;12047;53.450;-2.286;2023-01-05T06:32:56;18.02;;;3.05;;
23732;SDS011;12047;53.450;-2.286;2023-01-05T06:37:57;19.33;;;4.13;;
23732;SDS011;12047;53.450;-2.286;2023-01-05T06:42:57;16.85;;;3.22;;
23732;SDS011;12047;53.450;-2.286;2023-01-05T06:47:58;30.38;;;3.22;;
23732;SDS011;12047;53.450;-2.286;2023-01-05T06:53:00;19.17;;;2.63;;
23732;SDS011;12047;53.450;-2.286;2023-01-05T06:58:00;19.88;;;3.45;;
23732;SDS011;12047;53.450;-2.286;2023-01-05T07:03:01;16.90;;;3.05;;
23732;SDS011;12047;53.450;-2.286;2023-01-05T07:08:02;16.10;;;3.38;;
23732;SDS011;12047;53.450;-2.286;2023-01-05T07:13:03;22.67;;;3.40;;
23732;SDS011;12047;53.450;-2.286;2023-01-05T07:18:04;17.38;;;3.42;;
23732;SDS011;12047;53.450;-2.286;2023-01-05T07:23:04;17.77;;;3.35;;
23732;SDS011;12047;53.450;-2.286;2023-01-05T07:28:05;21.35;;;3.58;;
23732;SDS011;12047;53.450;-2.286;2023-01-05T07:33:05;20.20;;;3.83;;
23732;SDS011;12047;53.450;-2.286;2023-01-05T07:38:06;22.15;;;3.70;;
23732;SDS011;12047;53.450;-2.286;2023-01-05T07:43:07;23.33;;;3.65;;
23732;SDS011;12047;53.450;-2.286;2023-01-05T07:48:11;21.58;;;3.88;;
23732;SDS011;12047;53.450;-2.286;2023-01-05T07:53:14;17.52;;;3.45;;
23732;SDS011;12047;53.450;-2.286;2023-01-05T08:04:12;25.52;;;4.65;;
23732;SDS011;12047;53.450;-2.286;2023-01-05T08:09:13;18.98;;;4.15;;
23732;SDS011;12047;53.450;-2.286;2023-01-05T08:14:32;30.75;;;4.43;;
23732;SDS011;12047;53.450;-2.286;2023-01-05T08:19:32;23.17;;;4.15;;
23732;SDS011;12047;53.450;-2.286;2023-01-05T08:24:33;30.13;;;4.82;;
23732;SDS011;12047;53.450;-2.286;2023-01-05T08:29:33;38.33;;;4.53;;
23732;SDS011;12047;53.450;-2.286;2023-01-05T08:34:34;45.97;;;6.57;;
23732;SDS011;12047;53.450;-2.286;2023-01-05T08:39:35;81.88;;;34.38;;
23732;SDS011;12047;53.450;-2.286;2023-01-05T08:44:35;44.03;;;6.22;;
23732;SDS011;12047;53.450;-2.286;2023-01-05T08:49:36;42.38;;;6.03;;
23732;SDS011;12047;53.450;-2.286;2023-01-05T08:54:36;41.67;;;6.13;;
23732;SDS011;12047;53.450;-2.286;2023-01-05T08:59:37;46.53;;;7.63;;
23732;SDS011;12047;53.450;-2.286;2023-01-05T09:04:38;45.25;;;6.20;;
23732;SDS011;12047;53.450;-2.286;2023-01-05T09:09:39;50.28;;;7.05;;
23732;SDS011;12047;53.450;-2.286;2023-01-05T09:14:42;33.63;;;6.43;;
23732;SDS011;12047;53.450;-2.286;2023-01-05T09:19:42;33.92;;;5.07;;
23732;SDS011;12047;53.450;-2.286;2023-01-05T09:24:43;42.88;;;5.47;;
23732;SDS011;12047;53.450;-2.286;2023-01-05T09:29:44;49.75;;;6.05;;
23732;SDS011;12047;53.450;-2.286;2023-01-05T09:34:44;28.42;;;5.43;;
23732;SDS011;12047;53.450;-2.286;2023-01-05T09:39:45;40.90;;;5.72;;
23732;SDS011;12047;53.450;-2.286;2023-01-05T09:44:47;28.85;;;4.10;;
23732;SDS011;12047;53.450;-2.286;2023-01-05T09:49:51;29.77;;;4.50;;
23732;SDS011;12047;53.450;-2.286;2023-01-05T09:54:53;30.02;;;3.67;;
23732;SDS011;12047;53.450;-2.286;2023-01-05T09:59:55;25.27;;;3.88;;
23732;SDS011;12047;53.450;-2.286;2023-01-05T10:05:01;25.85;;;3.95;;
23732;SDS011;12047;53.450;-2.286;2023-01-05T10:10:05;22.67;;;3.97;;
23732;SDS011;12047;53.450;-2.286;2023-01-05T10:15:17;23.40;;;3.28;;
23732;SDS011;12047;53.450;-2.286;2023-01-05T10:25:54;17.35;;;2.83;;
23732;SDS011;12047;53.450;-2.286;2023-01-05T10:30:59;21.63;;;3.35;;
23732;SDS011;12047;53.450;-2.286;2023-01-05T10:41:33;18.50;;;2.80;;
23732;SDS011;12047;53.450;-2.286;2023-01-05T10:46:54;13.52;;;3.05;;
23732;SDS011;12047;53.450;-2.286;2023-01-05T10:51:55;11.45;;;2.40;;
23732;SDS011;12047;53.450;-2.286;2023-01-05T10:57:43;15.38;;;2.58;;
23732;SDS011;12047;53.450;-2.286;2023-01-05T11:02:30;12.80;;;2.17;;
23732;SDS011;12047;53.450;-2.286;2023-01-05T11:07:45;8.45;;;2.25;;
23732;SDS011;12047;53.450;-2.286;2023-01-05T11:13:17;9.43;;;2.33;;
23732;SDS011;12047;53.450;-2.286;2023-01-05T11:29:28;9.43;;;1.50;;
23732;SDS011;12047;53.450;-2.286;2023-01-05T11:44:50;12.50;;;2.28;;
23732;SDS011;12047;53.450;-2.286;2023-01-05T11:49:57;11.48;;;2.10;;
23732;SDS011;12047;53.450;-2.286;2023-01-05T11:54:59;7.97;;;1.90;;
23732;SDS011;12047;53.450;-2.286;2023-01-05T12:10:47;11.73;;;2.03;;
23732;SDS011;12047;53.450;-2.286;2023-01-05T12:20:56;9.35;;;1.73;;
23732;SDS011;12047;53.450;-2.286;2023-01-05T12:26:41;15.23;;;2.88;;
23732;SDS011;12047;53.450;-2.286;2023-01-05T12:42:25;15.02;;;2.70;;
23732;SDS011;12047;53.450;-2.286;2023-01-05T12:47:46;17.33;;;2.92;;
23732;SDS011;12047;53.450;-2.286;2023-01-05T12:52:53;23.23;;;3.47;;
23732;SDS011;12047;53.450;-2.286;2023-01-05T12:58:00;19.45;;;3.40;;
23732;SDS011;12047;53.450;-2.286;2023-01-05T13:03:16;17.02;;;2.90;;
23732;SDS011;12047;53.450;-2.286;2023-01-05T13:13:37;16.33;;;2.85;;
23732;SDS011;12047;53.450;-2.286;2023-01-05T13:18:52;18.75;;;2.85;;
23732;SDS011;12047;53.450;-2.286;2023-01-05T13:24:01;7.80;;;2.42;;
23732;SDS011;12047;53.450;-2.286;2023-01-05T13:29:12;8.88;;;2.00;;
23732;SDS011;12047;53.450;-2.286;2023-01-05T13:45:20;11.88;;;2.53;;
23732;SDS011;12047;53.450;-2.286;2023-01-05T13:55:19;9.45;;;1.67;;
23732;SDS011;12047;53.450;-2.286;2023-01-05T14:05:27;6.68;;;1.45;;
23732;SDS011;12047;53.450;-2.286;2023-01-05T14:10:31;11.88;;;1.95;;
23732;SDS011;12047;53.450;-2.286;2023-01-05T14:15:35;14.32;;;2.17;;
23732;SDS011;12047;53.450;-2.286;2023-01-05T14:20:38;12.95;;;2.08;;
23732;SDS011;12047;53.450;-2.286;2023-01-05T14:25:45;11.65;;;1.77;;
23732;SDS011;12047;53.450;-2.286;2023-01-05T14:30:48;18.25;;;2.60;;
23732;SDS011;12047;53.450;-2.286;2023-01-05T14:35:50;8.57;;;1.77;;
23732;SDS011;12047;53.450;-2.286;2023-01-05T14:40:51;12.30;;;1.73;;
23732;SDS011;12047;53.450;-2.286;2023-01-05T14:46:16;7.78;;;1.35;;
23732;SDS011;12047;53.450;-2.286;2023-01-05T14:51:22;8.00;;;1.48;;
23732;SDS011;12047;53.450;-2.286;2023-01-05T14:56:27;8.55;;;1.63;;
23732;SDS011;12047;53.450;-2.286;2023-01-05T15:01:37;8.40;;;1.90;;
23732;SDS011;12047;53.450;-2.286;2023-01-05T15:40:27;8.70;;;1.70;;
23732;SDS011;12047;53.450;-2.286;2023-01-05T15:45:31;6.85;;;1.75;;
23732;SDS011;12047;53.450;-2.286;2023-01-05T15:50:44;6.53;;;1.40;;
23732;SDS011;12047;53.450;-2.286;2023-01-05T15:55:49;7.80;;;1.75;;
23732;SDS011;12047;53.450;-2.286;2023-01-05T16:01:10;7.22;;;1.65;;
23732;SDS011;12047;53.450;-2.286;2023-01-05T16:06:20;8.82;;;1.77;;
23732;SDS011;12047;53.450;-2.286;2023-01-05T16:26:39;12.05;;;2.30;;
23732;SDS011;12047;53.450;-2.286;2023-01-05T16:31:40;11.80;;;2.50;;
23732;SDS011;12047;53.450;-2.286;2023-01-05T16:36:59;12.95;;;2.60;;
23732;SDS011;12047;53.450;-2.286;2023-01-05T16:42:03;13.95;;;2.08;;
23732;SDS011;12047;53.450;-2.286;2023-01-05T16:47:39;6.32;;;1.63;;
23732;SDS011;12047;53.450;-2.286;2023-01-05T16:52:40;16.63;;;4.72;;
23732;SDS011;12047;53.450;-2.286;2023-01-05T16:57:41;9.15;;;1.90;;
23732;SDS011;12047;53.450;-2.286;2023-01-05T17:02:46;10.30;;;1.92;;
23732;SDS011;12047;53.450;-2.286;2023-01-05T17:07:58;10.25;;;2.00;;
23732;SDS011;12047;53.450;-2.286;2023-01-05T17:13:04;7.28;;;1.80;;
23732;SDS011;12047;53.450;-2.286;2023-01-05T17:18:14;9.20;;;1.73;;
23732;SDS011;12047;53.450;-2.286;2023-01-05T17:23:21;10.63;;;1.90;;
23732;SDS011;12047;53.450;-2.286;2023-01-05T17:28:27;14.60;;;2.28;;
23732;SDS011;12047;53.450;-2.286;2023-01-05T17:33:28;8.77;;;1.80;;
23732;SDS011;12047;53.450;-2.286;2023-01-05T17:38:29;11.02;;;2.00;;
23732;SDS011;12047;53.450;-2.286;2023-01-05T17:43:30;9.15;;;2.00;;
23732;SDS011;12047;53.450;-2.286;2023-01-05T17:48:30;10.40;;;2.22;;
23732;SDS011;12047;53.450;-2.286;2023-01-05T17:53:31;13.85;;;3.10;;
23732;SDS011;12047;53.450;-2.286;2023-01-05T17:58:31;9.75;;;2.22;;
23732;SDS011;12047;53.450;-2.286;2023-01-05T18:03:32;9.30;;;2.10;;
23732;SDS011;12047;53.450;-2.286;2023-01-05T18:08:33;7.18;;;2.10;;
23732;SDS011;12047;53.450;-2.286;2023-01-05T18:13:34;7.32;;;2.20;;
23732;SDS011;12047;53.450;-2.286;2023-01-05T18:18:35;10.75;;;2.47;;
23732;SDS011;12047;53.450;-2.286;2023-01-05T18:23:35;12.65;;;3.97;;
23732;SDS011;12047;53.450;-2.286;2023-01-05T18:28:36;7.60;;;2.17;;
23732;SDS011;12047;53.450;-2.286;2023-01-05T18:33:37;8.82;;;1.77;;
23732;SDS011;12047;53.450;-2.286;2023-01-05T18:38:38;9.25;;;2.13;;
23732;SDS011;12047;53.450;-2.286;2023-01-05T18:43:39;8.02;;;1.60;;
23732;SDS011;12047;53.450;-2.286;2023-01-05T18:48:47;9.45;;;1.88;;
23732;SDS011;12047;53.450;-2.286;2023-01-05T18:53:49;10.50;;;1.83;;
23732;SDS011;12047;53.450;-2.286;2023-01-05T18:58:59;7.57;;;1.75;;
23732;SDS011;12047;53.450;-2.286;2023-01-05T19:09:23;10.80;;;2.35;;
23732;SDS011;12047;53.450;-2.286;2023-01-05T19:14:24;9.18;;;1.63;;
23732;SDS011;12047;53.450;-2.286;2023-01-05T19:19:25;9.27;;;2.20;;
23732;SDS011;12047;53.450;-2.286;2023-01-05T19:24:25;9.27;;;2.28;;
23732;SDS011;12047;53.450;-2.286;2023-01-05T19:29:26;7.22;;;1.65;;
23732;SDS011;12047;53.450;-2.286;2023-01-05T19:34:27;6.45;;;1.60;;
23732;SDS011;12047;53.450;-2.286;2023-01-05T19:39:28;7.03;;;1.50;;
23732;SDS011;12047;53.450;-2.286;2023-01-05T19:44:28;8.25;;;1.60;;
23732;SDS011;12047;53.450;-2.286;2023-01-05T19:49:29;7.95;;;1.50;;
23732;SDS011;12047;53.450;-2.286;2023-01-05T19:54:33;5.45;;;1.30;;
23732;SDS011;12047;53.450;-2.286;2023-01-05T19:59:33;6.10;;;1.33;;
23732;SDS011;12047;53.450;-2.286;2023-01-05T20:10:25;6.18;;;1.30;;
23732;SDS011;12047;53.450;-2.286;2023-01-05T20:15:26;7.22;;;1.45;;
23732;SDS011;12047;53.450;-2.286;2023-01-05T20:25:51;8.40;;;1.58;;
23732;SDS011;12047;53.450;-2.286;2023-01-05T20:30:52;5.90;;;1.50;;
23732;SDS011;12047;53.450;-2.286;2023-01-05T20:35:55;9.27;;;1.60;;
23732;SDS011;12047;53.450;-2.286;2023-01-05T20:40:59;5.07;;;1.40;;
23732;SDS011;12047;53.450;-2.286;2023-01-05T20:46:11;7.80;;;1.23;;
23732;SDS011;12047;53.450;-2.286;2023-01-05T20:51:12;7.15;;;1.88;;
23732;SDS011;12047;53.450;-2.286;2023-01-05T20:56:37;6.18;;;1.95;;
23732;SDS011;12047;53.450;-2.286;2023-01-05T21:01:49;7.85;;;1.50;;
23732;SDS011;12047;53.450;-2.286;2023-01-05T21:06:59;7.70;;;2.10;;
23732;SDS011;12047;53.450;-2.286;2023-01-05T21:12:04;9.02;;;1.45;;
23732;SDS011;12047;53.450;-2.286;2023-01-05T21:17:11;8.55;;;1.95;;
23732;SDS011;12047;53.450;-2.286;2023-01-05T21:28:28;6.22;;;0.95;;
23732;SDS011;12047;53.450;-2.286;2023-01-05T21:33:29;5.68;;;1.50;;
23732;SDS011;12047;53.450;-2.286;2023-01-05T21:38:33;7.78;;;1.55;;
23732;SDS011;12047;53.450;-2.286;2023-01-05T21:43:34;6.53;;;1.40;;
23732;SDS011;12047;53.450;-2.286;2023-01-05T21:48:35;8.45;;;1.55;;
23732;SDS011;12047;53.450;-2.286;2023-01-05T21:53:35;12.68;;;1.80;;
23732;SDS011;12047;53.450;-2.286;2023-01-05T21:58:57;7.97;;;1.42;;
23732;SDS011;12047;53.450;-2.286;2023-01-05T22:04:00;12.38;;;1.63;;
23732;SDS011;12047;53.450;-2.286;2023-01-05T22:09:01;8.60;;;1.33;;
23732;SDS011;12047;53.450;-2.286;2023-01-05T22:14:01;11.15;;;1.60;;
23732;SDS011;12047;53.450;-2.286;2023-01-05T22:19:02;10.30;;;1.60;;
23732;SDS011;12047;53.450;-2.286;2023-01-05T22:24:03;8.95;;;1.75;;
23732;SDS011;12047;53.450;-2.286;2023-01-05T22:29:05;7.70;;;1.60;;
23732;SDS011;12047;53.450;-2.286;2023-01-05T22:34:07;7.40;;;1.50;;
23732;SDS011;12047;53.450;-2.286;2023-01-05T22:39:08;5.00;;;1.42;;
23732;SDS011;12047;53.450;-2.286;2023-01-05T22:44:09;6.30;;;1.10;;
23732;SDS011;12047;53.450;-2.286;2023-01-05T22:49:16;6.55;;;1.15;;
23732;SDS011;12047;53.450;-2.286;2023-01-05T22:54:17;10.05;;;1.58;;
23732;SDS011;12047;53.450;-2.286;2023-01-05T22:59:18;6.22;;;1.65;;
23732;SDS011;12047;53.450;-2.286;2023-01-05T23:04:21;8.45;;;1.25;;
23732;SDS011;12047;53.450;-2.286;2023-01-05T23:09:22;8.80;;;1.90;;
23732;SDS011;12047;53.450;-2.286;2023-01-05T23:14:23;7.80;;;1.17;;
23732;SDS011;12047;53.450;-2.286;2023-01-05T23:19:27;8.30;;;1.40;;
23732;SDS011;12047;53.450;-2.286;2023-01-05T23:24:30;7.93;;;1.00;;
23732;SDS011;12047;53.450;-2.286;2023-01-05T23:29:31;7.38;;;0.98;;
23732;SDS011;12047;53.450;-2.286;2023-01-05T23:34:35;3.95;;;0.90;;
23732;SDS011;12047;53.450;-2.286;2023-01-05T23:39:39;8.57;;;1.27;;
23732;SDS011;12047;53.450;-2.286;2023-01-05T23:44:40;5.90;;;0.98;;
23732;SDS011;12047;53.450;-2.286;2023-01-05T23:49:44;5.07;;;1.05;;
23732;SDS011;12047;53.450;-2.286;2023-01-05T23:54:47;3.60;;;1.02;;
23732;SDS011;12047;53.450;-2.286;2023-01-05T23:59:48;2.60;;;0.90;;
